createdAt,value
2019-04-21T00:00:10.310Z,9.73
2019-04-21T00:02:38.089Z,8.58
2019-04-21T00:05:25.950Z,8.20
2019-04-21T00:08:01.238Z,9.03
2019-04-21T00:10:27.214Z,9.40
2019-04-21T00:12:53.470Z,7.97
2019-04-21T00:15:18.022Z,8.10
2019-04-21T00:17:37.258Z,7.45
2019-04-21T00:20:17.639Z,8.08
2019-04-21T00:22:47.957Z,8.50
2019-04-21T00:25:28.732Z,9.13
2019-04-21T00:28:04.915Z,8.38
2019-04-21T00:30:39.860Z,9.58
2019-04-21T00:33:00.185Z,8.05
2019-04-21T00:35:25.868Z,8.55
2019-04-21T00:38:13.663Z,8.50
2019-04-21T00:40:48.014Z,8.40
2019-04-21T00:43:08.974Z,8.45
2019-04-21T00:45:39.232Z,8.15
2019-04-21T00:48:17.582Z,9.50
2019-04-21T00:51:03.419Z,8.63
2019-04-21T00:53:31.057Z,9.25
2019-04-21T00:55:59.040Z,10.10
2019-04-21T00:58:30.081Z,9.40
2019-04-21T01:01:00.446Z,9.68
2019-04-21T01:03:47.394Z,10.32
2019-04-21T01:05:56.915Z,10.88
2019-04-21T01:08:25.270Z,10.32
2019-04-21T01:10:53.179Z,11.05
2019-04-21T01:13:36.255Z,10.65
2019-04-21T01:16:00.395Z,11.10
2019-04-21T01:18:32.885Z,10.23
2019-04-21T01:20:43.922Z,10.00
2019-04-21T01:23:14.684Z,10.48
2019-04-21T01:25:55.438Z,11.88
2019-04-21T01:28:29.243Z,10.88
2019-04-21T01:31:03.463Z,10.72
2019-04-21T01:33:41.245Z,11.38
2019-04-21T01:36:04.174Z,9.60
2019-04-21T01:38:39.790Z,11.08
2019-04-21T01:41:13.225Z,11.60
2019-04-21T01:43:39.482Z,11.00
2019-04-21T01:46:09.307Z,10.40
2019-04-21T01:48:34.199Z,11.20
2019-04-21T01:51:10.036Z,11.60
2019-04-21T01:54:03.478Z,12.07
2019-04-21T01:56:40.147Z,11.00
2019-04-21T01:59:02.543Z,11.50
2019-04-21T02:01:42.429Z,12.13
2019-04-21T02:04:22.716Z,11.45
2019-04-21T02:06:48.898Z,11.55
2019-04-21T02:09:09.783Z,12.23
2019-04-21T02:11:50.926Z,12.30
2019-04-21T02:14:23.748Z,11.18
2019-04-21T02:16:49.655Z,11.08
2019-04-21T02:19:16.593Z,11.90
2019-04-21T02:24:31.151Z,11.22
2019-04-21T02:26:57.277Z,11.85
2019-04-21T02:29:30.379Z,11.70
2019-04-21T02:32:11.014Z,11.22
2019-04-21T02:34:43.010Z,11.68
2019-04-21T02:37:30.840Z,11.35
2019-04-21T02:39:46.709Z,12.00
2019-04-21T02:44:46.769Z,11.53
2019-04-21T02:47:16.903Z,11.73
2019-04-21T02:52:20.057Z,11.88
2019-04-21T02:57:18.441Z,12.45
2019-04-21T03:08:22.822Z,11.73
2019-04-21T03:13:14.018Z,11.95
2019-04-21T03:20:44.278Z,12.78
2019-04-21T03:23:23.821Z,12.30
2019-04-21T03:25:59.050Z,13.20
2019-04-21T03:28:22.210Z,13.40
2019-04-21T03:38:29.299Z,13.90
2019-04-21T03:40:47.379Z,13.53
2019-04-21T03:45:51.474Z,12.68
2019-04-21T03:48:31.910Z,13.03
2019-04-21T03:50:56.331Z,13.78
2019-04-21T03:53:24.907Z,13.65
2019-04-21T03:58:35.136Z,12.85
2019-04-21T04:01:19.755Z,12.47
2019-04-21T04:06:33.998Z,14.63
2019-04-21T04:09:21.446Z,12.88
2019-04-21T04:11:55.168Z,13.60
2019-04-21T04:17:02.473Z,13.08
2019-04-21T04:19:27.053Z,13.28
2019-04-21T04:24:22.190Z,12.80
2019-04-21T04:27:02.546Z,12.95
2019-04-21T04:29:22.445Z,13.28
2019-04-21T04:34:47.766Z,14.40
2019-04-21T04:37:23.599Z,12.88
2019-04-21T04:40:02.871Z,13.38
2019-04-21T04:42:41.636Z,13.05
2019-04-21T04:47:33.413Z,13.40
2019-04-21T04:49:59.363Z,12.40
2019-04-21T04:52:38.472Z,11.83
2019-04-21T04:55:07.658Z,11.00
2019-04-21T04:57:49.229Z,12.35
2019-04-21T05:12:43.783Z,12.07
2019-04-21T05:15:19.268Z,11.48
2019-04-21T05:22:45.936Z,13.20
2019-04-21T05:25:08.546Z,13.72
2019-04-21T05:27:38.560Z,14.20
2019-04-21T05:30:27.079Z,15.03
2019-04-21T05:33:06.960Z,13.95
2019-04-21T05:35:49.266Z,14.05
2019-04-21T05:38:21.768Z,15.35
2019-04-21T05:40:52.336Z,15.00
2019-04-21T05:43:32.478Z,15.75
2019-04-21T05:46:19.673Z,14.63
2019-04-21T05:51:03.559Z,14.65
2019-04-21T05:53:35.912Z,14.78
2019-04-21T05:56:09.964Z,15.83
2019-04-21T05:58:39.171Z,16.17
2019-04-21T06:06:20.494Z,16.30
2019-04-21T06:08:43.176Z,15.85
2019-04-21T06:11:19.173Z,14.83
2019-04-21T06:13:58.039Z,15.65
2019-04-21T06:16:24.172Z,15.98
2019-04-21T06:18:53.250Z,15.50
2019-04-21T06:21:23.348Z,15.48
2019-04-21T06:23:59.233Z,16.82
2019-04-21T06:28:59.291Z,16.93
2019-04-21T06:34:06.815Z,17.12
2019-04-21T06:37:19.218Z,16.48
2019-04-21T06:39:40.431Z,17.30
2019-04-21T06:42:05.276Z,16.20
2019-04-21T06:44:40.560Z,17.12
2019-04-21T06:47:17.590Z,18.57
2019-04-21T06:49:41.109Z,19.27
2019-04-21T06:52:22.184Z,18.40
2019-04-21T06:54:41.055Z,17.27
2019-04-21T06:57:11.759Z,17.00
2019-04-21T06:59:38.983Z,16.70
2019-04-21T07:04:46.918Z,17.37
2019-04-21T07:07:14.411Z,15.40
2019-04-21T07:09:45.391Z,17.73
2019-04-21T07:12:13.692Z,17.30
2019-04-21T07:14:44.119Z,17.55
2019-04-21T07:17:22.880Z,17.82
2019-04-21T07:19:48.067Z,17.32
2019-04-21T07:22:24.689Z,17.80
2019-04-21T07:24:48.201Z,17.75
2019-04-21T07:27:26.978Z,17.17
2019-04-21T07:29:56.615Z,16.93
2019-04-21T07:32:20.809Z,17.37
2019-04-21T07:34:54.587Z,18.00
2019-04-21T07:37:23.904Z,17.07
2019-04-21T07:39:54.814Z,16.97
2019-04-21T07:42:25.403Z,16.05
2019-04-21T07:44:55.320Z,16.90
2019-04-21T07:47:34.433Z,17.65
2019-04-21T07:50:14.876Z,17.40
2019-04-21T07:53:05.054Z,18.37
2019-04-21T07:57:55.935Z,17.48
2019-04-21T08:03:05.211Z,16.45
2019-04-21T08:05:35.248Z,16.52
2019-04-21T08:08:21.114Z,16.52
2019-04-21T08:11:32.660Z,17.82
2019-04-21T08:15:14.588Z,17.90
2019-04-21T08:18:11.760Z,16.85
2019-04-21T08:21:28.040Z,16.25
2019-04-21T08:24:35.270Z,16.42
2019-04-21T08:28:01.444Z,16.50
2019-04-21T08:31:13.986Z,16.90
2019-04-21T08:33:51.406Z,16.15
2019-04-21T08:38:51.505Z,16.50
2019-04-21T08:41:12.491Z,16.65
2019-04-21T08:43:48.111Z,17.20
2019-04-21T08:46:20.240Z,15.90
2019-04-21T08:48:52.581Z,15.95
2019-04-21T08:56:43.188Z,16.62
2019-04-21T08:59:17.863Z,15.53
2019-04-21T09:01:55.547Z,15.70
2019-04-21T09:04:24.445Z,15.13
2019-04-21T09:09:31.973Z,15.32
2019-04-21T09:12:01.638Z,14.95
2019-04-21T09:14:33.785Z,14.50
2019-04-21T09:16:56.398Z,14.83
2019-04-21T09:19:44.398Z,14.18
2019-04-21T09:22:03.991Z,14.87
2019-04-21T09:24:33.632Z,14.25
2019-04-21T09:27:07.138Z,14.73
2019-04-21T09:29:25.671Z,13.58
2019-04-21T09:31:48.020Z,13.72
2019-04-21T09:34:24.859Z,13.70
2019-04-21T09:36:53.137Z,13.32
2019-04-21T09:39:24.103Z,13.60
2019-04-21T09:41:54.490Z,13.03
2019-04-21T09:44:27.558Z,12.65
2019-04-21T09:46:54.878Z,12.95
2019-04-21T09:49:25.950Z,13.00
2019-04-21T09:51:52.998Z,13.62
2019-04-21T09:54:27.789Z,13.30
2019-04-21T09:56:58.616Z,13.25
2019-04-21T09:59:28.026Z,13.05
2019-04-21T10:02:06.673Z,12.37
2019-04-21T10:04:26.673Z,11.33
2019-04-21T10:06:56.277Z,11.22
2019-04-21T10:09:26.442Z,10.63
2019-04-21T10:11:55.049Z,10.00
2019-04-21T10:14:26.423Z,9.88
2019-04-21T10:17:15.087Z,9.65
2019-04-21T10:19:46.374Z,10.45
2019-04-21T10:22:16.904Z,9.23
2019-04-21T10:24:46.709Z,9.38
2019-04-21T10:27:19.032Z,9.05
2019-04-21T10:29:47.262Z,8.08
2019-04-21T10:32:19.712Z,9.65
2019-04-21T10:34:49.609Z,8.85
2019-04-21T10:37:18.877Z,8.68
2019-04-21T10:39:47.668Z,9.10
2019-04-21T10:42:17.366Z,9.18
2019-04-21T10:44:47.187Z,10.43
2019-04-21T10:47:16.574Z,8.48
2019-04-21T10:49:46.514Z,8.08
2019-04-21T10:52:28.920Z,7.15
2019-04-21T10:55:20.799Z,7.40
2019-04-21T10:57:32.574Z,7.00
2019-04-21T11:00:08.366Z,7.87
2019-04-21T11:02:44.223Z,7.78
2019-04-21T11:05:12.828Z,8.33
2019-04-21T11:08:00.913Z,6.80
2019-04-21T11:10:20.345Z,8.05
2019-04-21T11:12:50.668Z,7.50
2019-04-21T11:15:23.225Z,6.85
2019-04-21T11:17:52.323Z,7.62
2019-04-21T11:20:22.874Z,8.08
2019-04-21T11:22:51.844Z,7.00
2019-04-21T11:25:20.420Z,6.62
2019-04-21T11:27:49.343Z,6.55
2019-04-21T11:30:21.081Z,7.00
2019-04-21T11:32:51.143Z,6.58
2019-04-21T11:35:23.289Z,6.70
2019-04-21T11:38:07.237Z,6.83
2019-04-21T11:40:29.716Z,7.22
2019-04-21T11:42:59.723Z,7.33
2019-04-21T11:45:32.730Z,6.75
2019-04-21T11:48:10.499Z,6.60
2019-04-21T11:50:39.439Z,6.08
2019-04-21T11:53:08.321Z,6.70
2019-04-21T11:55:41.163Z,7.37
2019-04-21T11:58:09.844Z,7.42
2019-04-21T12:00:39.825Z,7.30
2019-04-21T12:03:09.229Z,6.97
2019-04-21T12:05:39.866Z,7.22
2019-04-21T12:08:21.013Z,7.15
2019-04-21T12:10:39.714Z,7.37
2019-04-21T12:13:08.454Z,7.42
2019-04-21T12:15:38.943Z,7.05
2019-04-21T12:18:08.188Z,7.12
2019-04-21T12:20:37.631Z,8.60
2019-04-21T12:23:06.831Z,7.83
2019-04-21T12:25:39.060Z,7.53
2019-04-21T12:28:08.009Z,7.72
2019-04-21T12:30:37.791Z,8.58
2019-04-21T12:33:25.489Z,8.15
2019-04-21T12:35:55.651Z,8.38
2019-04-21T12:38:36.480Z,8.15
2019-04-21T12:43:26.511Z,8.70
2019-04-21T12:45:55.870Z,8.60
2019-04-21T12:48:26.207Z,8.53
2019-04-21T12:50:55.179Z,8.48
2019-04-21T12:53:23.762Z,8.35
2019-04-21T12:55:53.895Z,8.78
2019-04-21T12:58:25.578Z,8.78
2019-04-21T13:00:56.759Z,9.03
2019-04-21T13:03:27.413Z,9.00
2019-04-21T13:05:56.070Z,8.63
2019-04-21T13:08:25.041Z,7.47
2019-04-21T13:10:56.086Z,7.78
2019-04-21T13:13:26.193Z,7.97
2019-04-21T13:15:57.602Z,9.13
2019-04-21T13:18:27.048Z,8.60
2019-04-21T13:20:56.108Z,8.38
2019-04-21T13:23:27.084Z,8.23
2019-04-21T13:25:56.140Z,8.03
2019-04-21T13:28:24.912Z,8.50
2019-04-21T13:30:56.051Z,9.48
2019-04-21T13:33:25.333Z,9.33
2019-04-21T13:35:55.135Z,8.20
2019-04-21T13:38:33.261Z,9.58
2019-04-21T13:41:31.142Z,8.75
2019-04-21T13:43:49.144Z,8.65
2019-04-21T13:46:20.559Z,7.33
2019-04-21T13:48:50.754Z,8.95
2019-04-21T13:51:19.548Z,8.85
2019-04-21T13:53:49.457Z,8.03
2019-04-21T13:56:18.495Z,8.90
2019-04-21T13:58:48.395Z,8.20
2019-04-21T14:01:18.085Z,8.88
2019-04-21T14:03:49.490Z,8.63
2019-04-21T14:06:20.487Z,8.10
2019-04-21T14:08:50.592Z,8.30
2019-04-21T14:11:20.079Z,9.20
2019-04-21T14:13:50.285Z,8.53
2019-04-21T14:16:20.306Z,8.63
2019-04-21T14:18:49.629Z,8.13
2019-04-21T14:21:18.897Z,9.00
2019-04-21T14:23:50.818Z,7.87
2019-04-21T14:26:18.401Z,8.50
2019-04-21T14:28:47.546Z,9.18
2019-04-21T14:31:17.611Z,8.53
2019-04-21T14:33:46.173Z,7.62
2019-04-21T14:36:17.210Z,8.70
2019-04-21T14:38:47.676Z,7.85
2019-04-21T14:41:16.265Z,8.43
2019-04-21T14:43:47.973Z,8.08
2019-04-21T14:46:21.768Z,7.70
2019-04-21T14:52:21.194Z,8.98
2019-04-21T14:55:12.278Z,8.10
2019-04-21T14:57:41.142Z,8.03
2019-04-21T15:00:11.209Z,8.88
2019-04-21T15:02:39.938Z,8.43
2019-04-21T15:05:11.475Z,9.23
2019-04-21T15:07:41.407Z,9.35
2019-04-21T15:10:18.012Z,9.93
2019-04-21T15:12:41.597Z,8.55
2019-04-21T15:15:10.289Z,9.68
2019-04-21T15:17:39.885Z,9.15
2019-04-21T15:20:13.510Z,9.18
2019-04-21T15:22:38.850Z,9.20
2019-04-21T15:25:08.115Z,10.13
2019-04-21T15:27:37.049Z,9.10
2019-04-21T15:30:06.954Z,9.10
2019-04-21T15:32:36.729Z,9.60
2019-04-21T15:35:06.825Z,9.63
2019-04-21T15:37:35.984Z,10.45
2019-04-21T15:40:14.976Z,9.33
2019-04-21T15:42:36.630Z,8.98
2019-04-21T15:45:06.354Z,9.93
2019-04-21T15:47:35.983Z,9.90
2019-04-21T15:50:10.168Z,9.95
2019-04-21T15:52:37.965Z,9.75
2019-04-21T15:55:22.947Z,10.28
2019-04-21T15:58:01.083Z,9.20
2019-04-21T16:00:46.833Z,10.00
2019-04-21T16:04:04.309Z,9.25
2019-04-21T16:07:11.943Z,9.45
2019-04-21T16:10:26.204Z,9.98
2019-04-21T16:13:11.792Z,9.78
2019-04-21T16:16:12.770Z,8.85
2019-04-21T16:19:16.355Z,8.23
2019-04-21T16:22:18.797Z,9.68
2019-04-21T16:25:23.172Z,9.13
2019-04-21T16:27:51.043Z,9.50
2019-04-21T16:30:20.086Z,8.75
2019-04-21T16:32:49.886Z,8.38
2019-04-21T16:35:22.115Z,8.60
2019-04-21T16:37:50.923Z,9.60
2019-04-21T16:40:21.364Z,8.83
2019-04-21T16:42:50.126Z,8.75
2019-04-21T16:45:18.982Z,8.88
2019-04-21T16:47:53.350Z,9.15
2019-04-21T16:50:21.545Z,9.83
2019-04-21T16:53:08.254Z,8.98
2019-04-21T16:55:53.319Z,9.08
2019-04-21T16:58:28.920Z,8.80
2019-04-21T17:01:05.128Z,9.15
2019-04-21T17:03:32.603Z,8.70
2019-04-21T17:06:04.644Z,8.58
2019-04-21T17:08:31.831Z,8.58
2019-04-21T17:11:10.764Z,8.25
2019-04-21T17:13:33.583Z,8.30
2019-04-21T17:16:29.879Z,8.40
2019-04-21T17:18:48.244Z,8.68
2019-04-21T17:21:05.055Z,7.65
2019-04-21T17:23:33.626Z,8.50
2019-04-21T17:26:03.390Z,7.87
2019-04-21T17:28:32.039Z,7.42
2019-04-21T17:31:02.361Z,6.53
2019-04-21T17:33:32.351Z,6.75
2019-04-21T17:36:03.001Z,6.12
2019-04-21T17:38:34.158Z,6.30
2019-04-21T17:41:13.869Z,6.30
2019-04-21T17:43:34.693Z,6.92
2019-04-21T17:46:04.856Z,5.97
2019-04-21T17:48:34.672Z,5.72
2019-04-21T17:51:17.320Z,5.80
2019-04-21T17:53:56.931Z,6.65
2019-04-21T17:56:55.217Z,5.72
2019-04-21T17:59:16.394Z,5.87
2019-04-21T18:01:47.409Z,5.65
2019-04-21T18:07:04.849Z,5.53
2019-04-21T18:10:04.753Z,5.60
2019-04-21T18:12:29.211Z,5.33
2019-04-21T18:14:56.782Z,6.83
2019-04-21T18:17:20.450Z,6.10
2019-04-21T18:19:52.424Z,6.10
2019-04-21T18:22:38.536Z,6.37
2019-04-21T18:25:15.354Z,5.83
2019-04-21T18:27:40.592Z,5.65
2019-04-21T18:30:52.465Z,5.80
2019-04-21T18:33:27.440Z,5.30
2019-04-21T18:36:15.825Z,5.78
2019-04-21T18:39:10.365Z,5.78
2019-04-21T18:41:28.767Z,5.28
2019-04-21T18:44:44.387Z,5.15
2019-04-21T18:47:14.759Z,5.25
2019-04-21T18:49:29.349Z,5.42
2019-04-21T18:52:16.817Z,6.15
2019-04-21T18:54:49.165Z,6.28
2019-04-21T18:57:19.546Z,4.92
2019-04-21T18:59:44.008Z,7.50
2019-04-21T19:02:14.972Z,6.58
2019-04-21T19:04:43.111Z,7.97
2019-04-21T19:07:30.611Z,6.67
2019-04-21T19:14:59.342Z,5.97
2019-04-21T19:22:35.983Z,5.92
2019-04-21T19:25:09.951Z,6.25
2019-04-21T19:27:40.242Z,5.90
2019-04-21T19:32:39.038Z,5.45
2019-04-21T19:34:59.882Z,5.62
2019-04-21T19:37:38.945Z,5.28
2019-04-21T19:40:12.087Z,5.75
2019-04-21T19:42:45.559Z,6.05
2019-04-21T19:45:17.653Z,5.50
2019-04-21T19:47:56.681Z,5.50
2019-04-21T19:50:26.493Z,5.42
2019-04-21T19:52:43.748Z,4.95
2019-04-21T19:55:06.606Z,5.22
2019-04-21T19:57:38.892Z,4.90
2019-04-21T20:00:09.593Z,6.20
2019-04-21T20:02:38.503Z,4.70
2019-04-21T20:05:13.000Z,5.65
2019-04-21T20:07:55.348Z,5.30
2019-04-21T20:10:34.964Z,6.17
2019-04-21T20:13:02.858Z,6.10
2019-04-21T20:15:35.855Z,7.47
2019-04-21T20:18:00.273Z,6.40
2019-04-21T20:20:17.279Z,6.42
2019-04-21T20:22:50.316Z,6.53
2019-04-21T20:25:20.895Z,6.40
2019-04-21T20:27:58.140Z,6.40
2019-04-21T20:30:40.859Z,7.08
2019-04-21T20:33:19.836Z,6.87
2019-04-21T20:35:46.831Z,8.70
2019-04-21T20:38:02.282Z,7.17
2019-04-21T20:40:33.373Z,7.53
2019-04-21T20:43:13.473Z,7.90
2019-04-21T20:45:49.455Z,7.42
2019-04-21T20:48:07.261Z,7.45
2019-04-21T20:50:36.451Z,9.10
2019-04-21T20:53:17.635Z,10.90
2019-04-21T20:55:48.605Z,11.45
2019-04-21T20:58:15.091Z,12.43
2019-04-21T21:01:04.120Z,12.70
2019-04-21T21:03:24.700Z,12.90
2019-04-21T21:05:49.939Z,12.25
2019-04-21T21:08:24.641Z,12.88
2019-04-21T21:10:51.222Z,12.68
2019-04-21T21:13:32.192Z,13.50
2019-04-21T21:16:06.197Z,12.33
2019-04-21T21:18:59.582Z,12.40
2019-04-21T21:21:03.404Z,11.97
2019-04-21T21:23:29.147Z,13.05
2019-04-21T21:26:07.081Z,12.13
2019-04-21T21:28:29.044Z,15.05
2019-04-21T21:31:06.003Z,12.30
2019-04-21T21:33:39.489Z,13.40
2019-04-21T21:36:06.999Z,14.03
2019-04-21T21:38:37.545Z,13.40
2019-04-21T21:41:01.293Z,12.60
2019-04-21T21:45:59.058Z,13.60
2019-04-21T21:48:37.979Z,12.82
2019-04-21T21:51:04.398Z,12.47
2019-04-21T21:53:28.863Z,13.20
2019-04-21T21:55:58.517Z,13.38
2019-04-21T21:58:36.455Z,13.13
2019-04-21T22:01:02.968Z,13.30
2019-04-21T22:03:39.093Z,12.53
2019-04-21T22:06:09.934Z,12.68
2019-04-21T22:08:38.942Z,12.20
2019-04-21T22:11:08.895Z,13.62
2019-04-21T22:13:49.017Z,12.70
2019-04-21T22:16:14.068Z,12.85
2019-04-21T22:19:03.505Z,12.68
2019-04-21T22:21:26.609Z,12.82
2019-04-21T22:23:51.645Z,12.45
2019-04-21T22:26:13.300Z,12.60
2019-04-21T22:28:43.560Z,13.70
2019-04-21T22:31:17.066Z,12.43
2019-04-21T22:33:48.408Z,13.43
2019-04-21T22:36:26.734Z,14.70
2019-04-21T22:39:06.381Z,14.85
2019-04-21T22:41:28.157Z,18.23
2019-04-21T22:43:51.143Z,17.37
2019-04-21T22:46:16.329Z,18.05
2019-04-21T22:48:52.182Z,21.55
2019-04-21T22:51:23.763Z,20.37
2019-04-21T22:53:48.842Z,20.32
2019-04-21T22:56:23.614Z,21.07
2019-04-21T22:58:48.280Z,20.10
2019-04-21T23:01:24.194Z,17.87
2019-04-21T23:03:54.702Z,17.00
2019-04-21T23:06:25.065Z,16.93
2019-04-21T23:08:55.091Z,20.70
2019-04-21T23:11:34.942Z,21.80
2019-04-21T23:16:34.945Z,19.95
2019-04-21T23:19:15.892Z,21.30
2019-04-21T23:21:49.731Z,21.07
2019-04-21T23:24:26.210Z,19.87
2019-04-21T23:26:48.736Z,20.20
2019-04-21T23:29:30.714Z,19.85
2019-04-21T23:31:50.275Z,20.68
2019-04-21T23:34:06.426Z,20.17
2019-04-21T23:36:37.579Z,21.55
2019-04-21T23:39:15.990Z,19.65
2019-04-21T23:41:42.341Z,20.45
2019-04-21T23:44:12.207Z,20.52
2019-04-21T23:46:40.497Z,19.42
2019-04-21T23:49:22.213Z,19.32
2019-04-21T23:51:47.703Z,18.82
2019-04-21T23:54:11.392Z,20.15
2019-04-21T23:56:44.005Z,19.37
2019-04-21T23:59:16.047Z,18.50
